Time;durP1;ratioP1;P1;durP2;ratioP2;P2;SDS_P1;SDS_P2;PMS_P1;PMS_P2;Temp;Humidity;BMP_temperature;BMP_pressure;BME280_temperature;BME280_humidity;BME280_pressure;Samples;Min_cycle;Max_cycle;Signal;HPM_P1;HPM_P2
2023/04/21 00:00:58;;;;;;;4.18;3.72;;;;;;;;;;4994254;28;20189;-52
2023/04/21 00:03:26;;;;;;;5.03;4.53;;;;;;;;;;4993391;28;20207;-51
2023/04/21 00:05:52;;;;;;;4.60;3.88;;;;;;;;;;4992375;28;20192;-51
2023/04/21 00:08:18;;;;;;;4.30;3.90;;;;;;;;;;4992730;28;20313;-51
2023/04/21 00:10:45;;;;;;;5.40;4.20;;;;;;;;;;4992876;28;20329;-52
2023/04/21 00:13:11;;;;;;;4.25;3.78;;;;;;;;;;4993052;28;20259;-51
2023/04/21 00:15:37;;;;;;;5.35;4.10;;;;;;;;;;4993548;28;20193;-51
2023/04/21 00:18:03;;;;;;;4.13;3.70;;;;;;;;;;4992445;28;20492;-51
2023/04/21 00:20:30;;;;;;;4.60;4.00;;;;;;;;;;4994380;28;20201;-51
2023/04/21 00:22:56;;;;;;;4.05;3.65;;;;;;;;;;4993768;28;20287;-52
2023/04/21 00:25:22;;;;;;;5.03;4.20;;;;;;;;;;4991827;28;20181;-51
2023/04/21 00:27:48;;;;;;;5.07;4.00;;;;;;;;;;4994694;28;20213;-51
2023/04/21 00:30:14;;;;;;;4.68;3.85;;;;;;;;;;4997227;28;20189;-51
2023/04/21 00:32:40;;;;;;;4.30;3.75;;;;;;;;;;4997329;28;20185;-51
2023/04/21 00:35:06;;;;;;;4.28;3.88;;;;;;;;;;4996420;28;20276;-51
2023/04/21 00:37:32;;;;;;;4.82;4.32;;;;;;;;;;4996813;28;20204;-51
2023/04/21 00:39:58;;;;;;;4.05;3.60;;;;;;;;;;4997201;28;20177;-51
2023/04/21 00:42:25;;;;;;;4.65;3.88;;;;;;;;;;4996952;28;20181;-51
2023/04/21 00:44:51;;;;;;;4.57;4.18;;;;;;;;;;4996332;28;20177;-50
2023/04/21 00:47:17;;;;;;;3.80;3.50;;;;;;;;;;4996706;28;20196;-51
2023/04/21 00:49:43;;;;;;;4.32;3.92;;;;;;;;;;4990388;28;20192;-52
2023/04/21 00:52:09;;;;;;;4.85;4.10;;;;;;;;;;4996864;28;20189;-51
2023/04/21 00:54:35;;;;;;;4.43;3.90;;;;;;;;;;4994529;28;20217;-52
2023/04/21 00:57:02;;;;;;;4.13;3.65;;;;;;;;;;4993883;28;20450;-51
2023/04/21 00:59:28;;;;;;;4.63;3.97;;;;;;;;;;4996742;28;20207;-52
2023/04/21 01:01:54;;;;;;;3.97;3.58;;;;;;;;;;4996180;28;20216;-51
2023/04/21 01:04:20;;;;;;;4.15;3.60;;;;;;;;;;4996152;28;20258;-51
2023/04/21 01:06:46;;;;;;;4.20;3.80;;;;;;;;;;4996103;28;20227;-52
2023/04/21 01:09:12;;;;;;;4.78;4.10;;;;;;;;;;4995798;28;20193;-51
2023/04/21 01:11:38;;;;;;;6.07;3.95;;;;;;;;;;4996304;28;20256;-52
2023/04/21 01:14:04;;;;;;;4.50;3.88;;;;;;;;;;4996422;28;20189;-51
2023/04/21 01:16:33;;;;;;;4.07;3.67;;;;;;;;;;4994894;28;20211;-51
2023/04/21 01:19:00;;;;;;;4.43;3.83;;;;;;;;;;4994351;28;20205;-51
2023/04/21 01:21:27;;;;;;;4.68;4.10;;;;;;;;;;4996215;28;20204;-51
2023/04/21 01:23:53;;;;;;;4.65;3.95;;;;;;;;;;4996650;28;20556;-51
2023/04/21 01:26:20;;;;;;;4.05;3.67;;;;;;;;;;4995236;28;20195;-52
2023/04/21 01:28:47;;;;;;;4.53;4.05;;;;;;;;;;4994490;28;20189;-52
2023/04/21 01:31:13;;;;;;;5.60;4.00;;;;;;;;;;4995352;28;20177;-52
2023/04/21 01:33:39;;;;;;;4.28;3.60;;;;;;;;;;4996056;28;20561;-51
2023/04/21 01:36:05;;;;;;;4.40;3.45;;;;;;;;;;4995946;28;20192;-52
2023/04/21 01:38:31;;;;;;;3.88;3.50;;;;;;;;;;4995106;28;20546;-52
2023/04/21 01:40:57;;;;;;;3.75;3.45;;;;;;;;;;4994085;28;20265;-52
2023/04/21 01:43:25;;;;;;;4.75;3.97;;;;;;;;;;4995253;28;20561;-52
2023/04/21 01:45:51;;;;;;;4.13;3.72;;;;;;;;;;4995410;28;20192;-52
2023/04/21 01:48:17;;;;;;;4.32;3.78;;;;;;;;;;4996133;28;20200;-52
2023/04/21 01:50:43;;;;;;;4.07;3.50;;;;;;;;;;4995101;28;20192;-51
2023/04/21 01:53:08;;;;;;;4.05;3.65;;;;;;;;;;4995468;28;20243;-51
2023/04/21 01:55:34;;;;;;;4.15;3.60;;;;;;;;;;4994878;28;20220;-51
2023/04/21 01:58:00;;;;;;;4.25;3.85;;;;;;;;;;4994914;28;20193;-52
2023/04/21 02:00:26;;;;;;;4.47;3.90;;;;;;;;;;4994938;28;20572;-52
2023/04/21 02:02:52;;;;;;;4.28;3.88;;;;;;;;;;4995299;28;20604;-52
2023/04/21 02:05:18;;;;;;;4.70;3.80;;;;;;;;;;4995340;28;20236;-52
2023/04/21 02:07:45;;;;;;;4.00;3.65;;;;;;;;;;4993884;28;20185;-52
2023/04/21 02:10:11;;;;;;;4.65;4.25;;;;;;;;;;4995356;28;20212;-52
2023/04/21 02:12:37;;;;;;;3.75;3.40;;;;;;;;;;4993884;28;20814;-51
2023/04/21 02:15:03;;;;;;;4.15;3.75;;;;;;;;;;4995414;28;20185;-52
2023/04/21 02:17:29;;;;;;;4.38;3.97;;;;;;;;;;4994073;28;20213;-52
2023/04/21 02:19:55;;;;;;;4.93;4.15;;;;;;;;;;4995495;28;20457;-52
2023/04/21 02:22:21;;;;;;;4.43;3.88;;;;;;;;;;4994932;28;20212;-52
2023/04/21 02:24:48;;;;;;;4.18;3.63;;;;;;;;;;4995487;28;20181;-52
2023/04/21 02:27:14;;;;;;;4.50;3.92;;;;;;;;;;4993623;28;20193;-52
2023/04/21 02:29:40;;;;;;;4.80;3.88;;;;;;;;;;4993898;28;20564;-52
2023/04/21 02:32:06;;;;;;;4.15;3.72;;;;;;;;;;4994330;28;20197;-52
2023/04/21 02:34:33;;;;;;;4.25;3.85;;;;;;;;;;4994356;28;20181;-52
2023/04/21 02:36:59;;;;;;;3.85;3.50;;;;;;;;;;4992095;28;20185;-52
2023/04/21 02:39:25;;;;;;;5.65;3.85;;;;;;;;;;4993924;28;20218;-52
2023/04/21 02:41:51;;;;;;;5.00;3.95;;;;;;;;;;4993469;28;20251;-51
2023/04/21 02:44:17;;;;;;;4.28;3.60;;;;;;;;;;4994543;28;20212;-51
2023/04/21 02:46:43;;;;;;;3.90;3.50;;;;;;;;;;4993234;28;20592;-51
2023/04/21 02:49:09;;;;;;;4.55;4.10;;;;;;;;;;4995709;28;20217;-52
2023/04/21 02:51:35;;;;;;;5.13;3.80;;;;;;;;;;4992291;28;20196;-52
2023/04/21 02:54:02;;;;;;;4.43;3.67;;;;;;;;;;4994286;28;20190;-51
2023/04/21 02:56:27;;;;;;;4.18;3.78;;;;;;;;;;4994497;28;20184;-52
2023/04/21 02:58:53;;;;;;;3.67;3.35;;;;;;;;;;4994483;28;20497;-51
2023/04/21 03:01:19;;;;;;;4.28;3.72;;;;;;;;;;4980642;28;20190;-52
2023/04/21 03:03:45;;;;;;;4.53;3.70;;;;;;;;;;4994749;28;20243;-52
2023/04/21 03:06:11;;;;;;;4.50;3.75;;;;;;;;;;4993296;28;20620;-52
2023/04/21 03:08:37;;;;;;;3.90;3.50;;;;;;;;;;4993656;28;20213;-52
2023/04/21 03:11:03;;;;;;;3.78;3.47;;;;;;;;;;4994450;28;20189;-52
2023/04/21 03:13:29;;;;;;;4.20;3.80;;;;;;;;;;4994549;28;20247;-52
2023/04/21 03:15:56;;;;;;;3.90;3.50;;;;;;;;;;4994622;28;20193;-52
2023/04/21 03:18:22;;;;;;;4.43;3.90;;;;;;;;;;4993969;28;20201;-52
2023/04/21 03:20:47;;;;;;;4.32;3.88;;;;;;;;;;4992299;28;20628;-52
2023/04/21 03:23:13;;;;;;;4.22;3.83;;;;;;;;;;4994281;28;20185;-51
2023/04/21 03:25:39;;;;;;;4.10;3.70;;;;;;;;;;4987454;28;20312;-51
2023/04/21 03:28:05;;;;;;;4.40;3.58;;;;;;;;;;4994581;28;20192;-51
2023/04/21 03:30:31;;;;;;;4.43;3.65;;;;;;;;;;4991956;28;20181;-52
2023/04/21 03:32:58;;;;;;;3.88;3.50;;;;;;;;;;4993350;28;20602;-52
2023/04/21 03:35:24;;;;;;;4.97;3.72;;;;;;;;;;4994142;28;20181;-52
2023/04/21 03:37:50;;;;;;;9.70;4.47;;;;;;;;;;4994727;28;20208;-52
2023/04/21 03:40:16;;;;;;;8.63;4.10;;;;;;;;;;4990931;28;20181;-52
2023/04/21 03:42:42;;;;;;;8.38;4.93;;;;;;;;;;4994743;28;20307;-52
2023/04/21 03:45:08;;;;;;;9.57;4.03;;;;;;;;;;4993833;28;20292;-52
2023/04/21 03:47:35;;;;;;;4.90;4.00;;;;;;;;;;4991312;28;20193;-52
2023/04/21 03:50:03;;;;;;;6.07;4.15;;;;;;;;;;4992621;28;20599;-49
2023/04/21 03:52:29;;;;;;;21.15;6.68;;;;;;;;;;4993401;28;20185;-49
2023/04/21 03:54:55;;;;;;;35.67;9.20;;;;;;;;;;4993678;28;20193;-49
2023/04/21 03:57:21;;;;;;;22.35;8.27;;;;;;;;;;4992923;28;20495;-49
2023/04/21 03:59:47;;;;;;;22.63;7.72;;;;;;;;;;4993610;28;20193;-50
2023/04/21 04:02:12;;;;;;;16.85;7.13;;;;;;;;;;4993646;28;20264;-49
2023/04/21 04:04:38;;;;;;;10.75;7.00;;;;;;;;;;4997556;28;20583;-49
2023/04/21 04:07:06;;;;;;;13.77;6.28;;;;;;;;;;4996548;28;20185;-49
2023/04/21 04:09:32;;;;;;;17.98;6.38;;;;;;;;;;4997862;28;20177;-49
2023/04/21 04:11:58;;;;;;;17.83;5.90;;;;;;;;;;4998111;28;20192;-49
2023/04/21 04:14:24;;;;;;;13.68;6.50;;;;;;;;;;4998120;28;20201;-49
2023/04/21 04:16:49;;;;;;;16.90;6.50;;;;;;;;;;4996503;28;20557;-49
2023/04/21 04:19:15;;;;;;;15.68;6.75;;;;;;;;;;4996779;28;20511;-49
2023/04/21 04:21:41;;;;;;;13.85;6.15;;;;;;;;;;4995953;28;20196;-49
2023/04/21 04:24:08;;;;;;;10.70;6.10;;;;;;;;;;4998170;28;20188;-49
2023/04/21 04:26:34;;;;;;;11.73;6.03;;;;;;;;;;4997342;28;20187;-49
2023/04/21 04:29:01;;;;;;;13.82;6.03;;;;;;;;;;4995975;28;20181;-49
2023/04/21 04:31:28;;;;;;;10.35;5.40;;;;;;;;;;4997762;28;20476;-49
2023/04/21 04:33:53;;;;;;;16.35;5.90;;;;;;;;;;4998156;28;20683;-49
2023/04/21 04:36:19;;;;;;;11.02;5.82;;;;;;;;;;4997284;28;20201;-49
2023/04/21 04:38:45;;;;;;;15.68;5.38;;;;;;;;;;4996160;28;20208;-49
2023/04/21 04:41:11;;;;;;;11.48;5.30;;;;;;;;;;4992265;28;20429;-49
2023/04/21 04:43:40;;;;;;;10.60;6.10;;;;;;;;;;4997050;28;20449;-49
2023/04/21 04:46:08;;;;;;;12.40;5.53;;;;;;;;;;4997485;28;20184;-49
2023/04/21 04:48:34;;;;;;;9.55;5.38;;;;;;;;;;4995964;28;20181;-49
2023/04/21 04:51:00;;;;;;;11.10;5.72;;;;;;;;;;4995498;28;20453;-49
2023/04/21 04:53:27;;;;;;;14.40;5.38;;;;;;;;;;4995814;28;20280;-49
2023/04/21 04:55:53;;;;;;;11.32;5.13;;;;;;;;;;4995901;28;20200;-49
2023/04/21 04:58:19;;;;;;;9.60;5.15;;;;;;;;;;4996287;28;20208;-49
2023/04/21 05:00:45;;;;;;;12.27;5.20;;;;;;;;;;4997117;28;20180;-49
2023/04/21 05:03:11;;;;;;;11.38;4.90;;;;;;;;;;4996543;28;20185;-49
2023/04/21 05:05:37;;;;;;;10.65;5.60;;;;;;;;;;4979447;28;20672;-49
2023/04/21 05:08:03;;;;;;;7.80;5.78;;;;;;;;;;4995265;28;20268;-49
2023/04/21 05:10:29;;;;;;;9.45;5.63;;;;;;;;;;4996346;28;20197;-49
2023/04/21 05:12:55;;;;;;;9.57;5.45;;;;;;;;;;4996826;28;20568;-49
2023/04/21 05:15:21;;;;;;;11.18;5.45;;;;;;;;;;4994805;28;20185;-49
2023/04/21 05:17:47;;;;;;;7.40;5.05;;;;;;;;;;4988003;28;20296;-49
2023/04/21 05:20:14;;;;;;;8.63;5.22;;;;;;;;;;4996498;28;20315;-49
2023/04/21 05:22:40;;;;;;;10.13;5.22;;;;;;;;;;4996062;28;20185;-49
2023/04/21 05:25:06;;;;;;;11.48;5.50;;;;;;;;;;4996061;28;20181;-49
2023/04/21 05:27:32;;;;;;;9.68;5.70;;;;;;;;;;4995947;28;20549;-49
2023/04/21 05:29:59;;;;;;;11.00;5.03;;;;;;;;;;4995743;28;20844;-49
2023/04/21 05:32:24;;;;;;;9.45;5.13;;;;;;;;;;4996940;28;20192;-49
2023/04/21 05:34:50;;;;;;;9.50;5.20;;;;;;;;;;4995754;28;20185;-49
2023/04/21 05:37:16;;;;;;;8.32;5.00;;;;;;;;;;4991217;28;20554;-49
2023/04/21 05:39:42;;;;;;;8.23;5.20;;;;;;;;;;4996086;28;20213;-49
2023/04/21 05:42:11;;;;;;;7.20;5.20;;;;;;;;;;4996006;28;20173;-49
2023/04/21 05:44:37;;;;;;;8.57;5.07;;;;;;;;;;4996020;28;20547;-49
2023/04/21 05:47:04;;;;;;;9.30;4.63;;;;;;;;;;4996005;28;20621;-49
2023/04/21 05:49:30;;;;;;;8.02;5.28;;;;;;;;;;4994373;28;20193;-49
2023/04/21 05:51:56;;;;;;;8.93;5.15;;;;;;;;;;4994998;28;20571;-49
2023/04/21 05:54:22;;;;;;;7.82;4.78;;;;;;;;;;4995924;28;20205;-49
2023/04/21 05:56:48;;;;;;;6.60;4.65;;;;;;;;;;4996039;28;20235;-50
2023/04/21 05:59:14;;;;;;;6.72;4.70;;;;;;;;;;4977784;28;20651;-50
2023/04/21 06:01:40;;;;;;;7.63;5.03;;;;;;;;;;4995357;28;20236;-49
2023/04/21 06:04:06;;;;;;;9.48;4.40;;;;;;;;;;4994362;28;20185;-49
2023/04/21 06:06:32;;;;;;;5.78;4.50;;;;;;;;;;4995063;28;20456;-49
2023/04/21 06:08:58;;;;;;;10.30;4.85;;;;;;;;;;4994046;28;20189;-49
2023/04/21 06:11:24;;;;;;;6.50;4.60;;;;;;;;;;4995138;28;20515;-49
2023/04/21 06:13:52;;;;;;;5.97;4.35;;;;;;;;;;4994920;28;20193;-49
2023/04/21 06:16:18;;;;;;;5.80;4.60;;;;;;;;;;4991845;28;20192;-49
2023/04/21 06:18:44;;;;;;;8.10;4.60;;;;;;;;;;4975555;28;20205;-49
2023/04/21 06:21:10;;;;;;;9.65;4.80;;;;;;;;;;4993057;28;20638;-49
2023/04/21 06:23:36;;;;;;;7.97;4.65;;;;;;;;;;4994657;28;20189;-49
2023/04/21 06:26:04;;;;;;;7.00;4.57;;;;;;;;;;4994546;28;20203;-49
2023/04/21 06:28:30;;;;;;;5.53;4.32;;;;;;;;;;4994608;28;20183;-49
2023/04/21 06:30:56;;;;;;;7.97;5.13;;;;;;;;;;4993537;28;20272;-49
2023/04/21 06:33:22;;;;;;;7.65;5.10;;;;;;;;;;4993656;28;20578;-49
2023/04/21 06:35:48;;;;;;;6.85;4.20;;;;;;;;;;4994253;28;20252;-49
2023/04/21 06:38:14;;;;;;;5.75;4.50;;;;;;;;;;4995081;28;20211;-49
2023/04/21 06:40:40;;;;;;;6.00;4.32;;;;;;;;;;4993743;28;20231;-49
2023/04/21 06:43:06;;;;;;;7.20;4.78;;;;;;;;;;4995822;28;20553;-49
2023/04/21 06:45:32;;;;;;;5.97;4.18;;;;;;;;;;4993880;28;20588;-49
2023/04/21 06:47:57;;;;;;;5.35;4.18;;;;;;;;;;4993188;28;20237;-49
2023/04/21 06:50:23;;;;;;;8.57;4.80;;;;;;;;;;4993750;28;20200;-48
2023/04/21 06:52:49;;;;;;;4.80;4.00;;;;;;;;;;4994832;28;20269;-49
2023/04/21 06:55:15;;;;;;;6.47;4.38;;;;;;;;;;4993280;28;20196;-50
2023/04/21 06:57:42;;;;;;;5.85;4.00;;;;;;;;;;4994628;28;20208;-49
2023/04/21 07:00:08;;;;;;;5.55;4.05;;;;;;;;;;4993211;28;20273;-49
2023/04/21 07:02:34;;;;;;;5.95;4.30;;;;;;;;;;4993520;28;20181;-49
2023/04/21 07:05:00;;;;;;;5.60;4.05;;;;;;;;;;4993294;28;20177;-49
2023/04/21 07:07:26;;;;;;;6.25;4.35;;;;;;;;;;4991156;28;20205;-49
2023/04/21 07:09:52;;;;;;;6.35;4.50;;;;;;;;;;4993377;28;20224;-49
2023/04/21 07:12:18;;;;;;;5.20;3.92;;;;;;;;;;4994480;28;20205;-49
2023/04/21 07:14:44;;;;;;;4.82;4.03;;;;;;;;;;4993787;28;20213;-49
2023/04/21 07:17:10;;;;;;;4.22;3.38;;;;;;;;;;4992323;28;20192;-49
2023/04/21 07:19:36;;;;;;;5.22;4.20;;;;;;;;;;4994015;28;20624;-50
2023/04/21 07:22:02;;;;;;;4.85;4.00;;;;;;;;;;4993495;28;20263;-49
2023/04/21 07:24:33;;;;;;;5.47;3.92;;;;;;;;;;4993790;28;20491;-49
2023/04/21 07:26:59;;;;;;;5.40;3.92;;;;;;;;;;4993712;28;20212;-49
2023/04/21 07:29:25;;;;;;;5.88;4.30;;;;;;;;;;4992639;28;20212;-49
2023/04/21 07:31:52;;;;;;;6.97;4.45;;;;;;;;;;4992531;28;20208;-49
2023/04/21 07:34:18;;;;;;;5.50;3.97;;;;;;;;;;4994807;28;20181;-49
2023/04/21 07:36:44;;;;;;;4.22;3.33;;;;;;;;;;4994023;28;20425;-49
2023/04/21 07:39:10;;;;;;;7.40;4.35;;;;;;;;;;4998827;28;20208;-49
2023/04/21 07:41:36;;;;;;;4.80;3.97;;;;;;;;;;4996855;28;20499;-49
2023/04/21 07:44:02;;;;;;;6.65;3.90;;;;;;;;;;4998134;28;20185;-49
2023/04/21 07:46:30;;;;;;;5.30;4.10;;;;;;;;;;4996732;28;20242;-49
2023/04/21 07:48:56;;;;;;;8.38;4.57;;;;;;;;;;4997147;28;20227;-49
2023/04/21 07:51:23;;;;;;;8.18;3.97;;;;;;;;;;4997838;28;20234;-49
2023/04/21 07:53:49;;;;;;;4.90;4.00;;;;;;;;;;4997414;28;20185;-48
2023/04/21 07:56:15;;;;;;;5.72;3.42;;;;;;;;;;4997386;28;20193;-49
2023/04/21 07:58:41;;;;;;;4.10;3.60;;;;;;;;;;4993982;28;20211;-49
2023/04/21 08:01:07;;;;;;;5.85;4.05;;;;;;;;;;5000512;28;20465;-49
2023/04/21 08:03:33;;;;;;;5.93;3.38;;;;;;;;;;4995793;28;20192;-49
2023/04/21 08:05:59;;;;;;;4.55;3.55;;;;;;;;;;4996418;28;20189;-49
2023/04/21 08:08:25;;;;;;;5.07;3.60;;;;;;;;;;4995597;28;20212;-49
2023/04/21 08:10:51;;;;;;;3.95;3.55;;;;;;;;;;4998023;28;20216;-49
2023/04/21 08:13:17;;;;;;;4.30;3.58;;;;;;;;;;4997198;28;20209;-49
2023/04/21 08:15:43;;;;;;;5.22;3.97;;;;;;;;;;5000088;28;20185;-49
2023/04/21 08:18:09;;;;;;;5.13;3.83;;;;;;;;;;4996824;28;20223;-49
2023/04/21 08:20:35;;;;;;;4.45;3.40;;;;;;;;;;4997523;28;20188;-49
2023/04/21 08:23:01;;;;;;;3.80;3.40;;;;;;;;;;4996430;28;20264;-49
2023/04/21 08:25:27;;;;;;;5.72;3.90;;;;;;;;;;4996149;28;20188;-49
2023/04/21 08:27:52;;;;;;;4.00;3.40;;;;;;;;;;4997041;28;20185;-49
2023/04/21 08:30:19;;;;;;;6.20;4.13;;;;;;;;;;4997141;28;20204;-49
2023/04/21 08:32:45;;;;;;;4.70;3.75;;;;;;;;;;4997121;28;20244;-49
2023/04/21 08:35:11;;;;;;;4.90;4.05;;;;;;;;;;4996757;28;20201;-49
2023/04/21 08:37:38;;;;;;;5.15;3.63;;;;;;;;;;4995150;28;20299;-49
2023/04/21 08:40:05;;;;;;;6.90;4.00;;;;;;;;;;4997332;28;20189;-49
2023/04/21 08:42:31;;;;;;;7.10;3.72;;;;;;;;;;4996064;28;20181;-49
2023/04/21 08:44:56;;;;;;;4.22;3.42;;;;;;;;;;4996796;28;20227;-49
2023/04/21 08:47:23;;;;;;;3.88;3.22;;;;;;;;;;4996680;28;20446;-49
2023/04/21 08:49:50;;;;;;;4.28;3.80;;;;;;;;;;4996660;28;20178;-49
2023/04/21 08:52:16;;;;;;;4.32;3.67;;;;;;;;;;4996786;28;20209;-49
2023/04/21 08:54:42;;;;;;;5.13;3.85;;;;;;;;;;4995890;28;20222;-49
2023/04/21 08:57:08;;;;;;;5.15;3.60;;;;;;;;;;4994470;28;20200;-49
2023/04/21 08:59:34;;;;;;;4.32;3.13;;;;;;;;;;4996252;28;20213;-49
2023/04/21 09:02:09;;;;;;;3.63;2.80;;;;;;;;;;4996678;28;20192;-49
2023/04/21 09:04:45;;;;;;;4.10;3.38;;;;;;;;;;4996718;28;20185;-49
2023/04/21 09:07:11;;;;;;;4.28;3.88;;;;;;;;;;4996720;28;20207;-49
2023/04/21 09:09:54;;;;;;;3.72;3.35;;;;;;;;;;4993679;28;20181;-49
2023/04/21 09:12:20;;;;;;;4.05;3.50;;;;;;;;;;4995560;28;20219;-49
2023/04/21 09:14:46;;;;;;;4.95;3.50;;;;;;;;;;4996212;28;20208;-49
2023/04/21 09:17:11;;;;;;;4.13;3.50;;;;;;;;;;4996208;28;20189;-49
2023/04/21 09:19:37;;;;;;;3.67;3.22;;;;;;;;;;4996230;28;20213;-49
2023/04/21 09:22:03;;;;;;;3.83;3.35;;;;;;;;;;4996212;28;20564;-49
2023/04/21 09:24:30;;;;;;;3.33;3.03;;;;;;;;;;4995958;28;20423;-49
2023/04/21 09:26:55;;;;;;;4.68;3.47;;;;;;;;;;4995811;28;20205;-49
2023/04/21 09:29:25;;;;;;;4.07;3.55;;;;;;;;;;4994821;28;20189;-49
2023/04/21 09:31:51;;;;;;;4.15;3.20;;;;;;;;;;4991427;28;20288;-49
2023/04/21 09:34:23;;;;;;;4.45;3.50;;;;;;;;;;4994779;28;20177;-49
2023/04/21 09:36:49;;;;;;;3.80;3.42;;;;;;;;;;4995580;28;20537;-49
2023/04/21 09:39:15;;;;;;;3.65;3.20;;;;;;;;;;4995940;28;20248;-49
2023/04/21 09:41:43;;;;;;;3.95;3.40;;;;;;;;;;4994352;28;20292;-49
2023/04/21 09:44:09;;;;;;;3.92;3.30;;;;;;;;;;4990014;28;20181;-49
2023/04/21 09:46:35;;;;;;;4.63;3.50;;;;;;;;;;4995522;28;20179;-49
2023/04/21 09:49:02;;;;;;;3.10;2.80;;;;;;;;;;4995146;28;20181;-49
2023/04/21 09:51:30;;;;;;;3.75;3.10;;;;;;;;;;4994557;28;20181;-49
2023/04/21 09:53:58;;;;;;;3.67;3.30;;;;;;;;;;4993689;28;20432;-49
2023/04/21 09:56:25;;;;;;;4.50;3.80;;;;;;;;;;4994248;28;20216;-49
2023/04/21 09:58:57;;;;;;;3.55;3.25;;;;;;;;;;4994560;28;20247;-49
2023/04/21 10:01:24;;;;;;;3.55;3.10;;;;;;;;;;4993933;28;20212;-49
2023/04/21 10:03:51;;;;;;;4.50;3.05;;;;;;;;;;4988017;28;20169;-49
2023/04/21 10:06:17;;;;;;;4.53;3.35;;;;;;;;;;4994832;28;20185;-49
2023/04/21 10:08:44;;;;;;;3.22;2.92;;;;;;;;;;4995250;28;20247;-49
2023/04/21 10:11:10;;;;;;;3.65;3.20;;;;;;;;;;4995022;28;20189;-49
2023/04/21 10:13:37;;;;;;;4.97;3.20;;;;;;;;;;4994171;28;20855;-49
2023/04/21 10:16:07;;;;;;;4.22;3.58;;;;;;;;;;4994767;28;20189;-49
2023/04/21 10:18:37;;;;;;;3.45;3.00;;;;;;;;;;4994575;28;20216;-49
2023/04/21 10:21:05;;;;;;;5.80;3.40;;;;;;;;;;4994455;28;20184;-49
2023/04/21 10:23:32;;;;;;;3.30;3.00;;;;;;;;;;4994370;28;20616;-49
2023/04/21 10:26:06;;;;;;;3.55;2.90;;;;;;;;;;4994558;28;20215;-49
2023/04/21 10:28:42;;;;;;;3.58;3.10;;;;;;;;;;4988180;28;20181;-49
2023/04/21 10:31:25;;;;;;;3.30;3.00;;;;;;;;;;4994776;28;20189;-49
2023/04/21 10:34:11;;;;;;;4.03;3.20;;;;;;;;;;4995506;28;20180;-49
2023/04/21 10:36:46;;;;;;;3.30;3.00;;;;;;;;;;4994208;28;20192;-49
2023/04/21 10:39:25;;;;;;;4.07;2.83;;;;;;;;;;4989577;28;20323;-49
2023/04/21 10:41:51;;;;;;;3.40;3.10;;;;;;;;;;4994710;28;20256;-49
2023/04/21 10:44:17;;;;;;;3.85;2.90;;;;;;;;;;4994360;28;20264;-49
2023/04/21 10:46:47;;;;;;;4.00;2.95;;;;;;;;;;4994086;28;20205;-49
2023/04/21 10:49:26;;;;;;;3.25;2.90;;;;;;;;;;4994205;28;20621;-49
2023/04/21 10:51:58;;;;;;;2.72;2.47;;;;;;;;;;4993056;28;20449;-49
2023/04/21 10:54:25;;;;;;;4.22;3.05;;;;;;;;;;4994799;28;20204;-49
2023/04/21 10:56:52;;;;;;;3.45;3.13;;;;;;;;;;4994221;28;20185;-49
2023/04/21 10:59:18;;;;;;;5.25;3.17;;;;;;;;;;4992614;28;20217;-49
2023/04/21 11:01:44;;;;;;;3.15;2.80;;;;;;;;;;4994460;28;20188;-49
2023/04/21 11:04:15;;;;;;;2.95;2.65;;;;;;;;;;4976464;28;20600;-49
2023/04/21 11:06:40;;;;;;;3.47;3.00;;;;;;;;;;4991715;28;20204;-49
2023/04/21 11:09:08;;;;;;;5.05;2.70;;;;;;;;;;4992850;28;20220;-49
2023/04/21 11:11:35;;;;;;;3.95;2.95;;;;;;;;;;4992182;28;20182;-49
2023/04/21 11:14:01;;;;;;;3.97;3.10;;;;;;;;;;4996099;28;20293;-49
2023/04/21 11:16:27;;;;;;;3.45;2.83;;;;;;;;;;4997185;28;20200;-49
2023/04/21 11:18:55;;;;;;;4.97;3.00;;;;;;;;;;4996979;28;20197;-49
2023/04/21 11:21:21;;;;;;;3.97;2.72;;;;;;;;;;4997324;28;20165;-49
2023/04/21 11:23:49;;;;;;;4.18;2.80;;;;;;;;;;4997200;28;20173;-40
2023/04/21 11:26:15;;;;;;;5.32;3.08;;;;;;;;;;4997165;28;20196;-40
2023/04/21 11:28:41;;;;;;;5.35;3.13;;;;;;;;;;4997107;28;20430;-40
2023/04/21 11:31:07;;;;;;;5.25;2.95;;;;;;;;;;4997134;28;20192;-40
2023/04/21 11:33:37;;;;;;;3.60;2.70;;;;;;;;;;4997303;28;20184;-40
2023/04/21 11:36:04;;;;;;;4.90;2.72;;;;;;;;;;4997059;28;20180;-40
2023/04/21 11:38:37;;;;;;;3.92;2.65;;;;;;;;;;4997031;28;20193;-40
2023/04/21 11:41:04;;;;;;;4.25;2.80;;;;;;;;;;4997006;28;20200;-40
2023/04/21 11:43:29;;;;;;;3.33;2.67;;;;;;;;;;4995508;28;20639;-40
2023/04/21 11:46:10;;;;;;;3.08;2.65;;;;;;;;;;4993310;28;20195;-40
2023/04/21 11:48:36;;;;;;;5.45;3.13;;;;;;;;;;4993907;28;20230;-40
2023/04/21 11:51:02;;;;;;;4.35;2.65;;;;;;;;;;4993670;28;20272;-40
2023/04/21 11:53:28;;;;;;;4.10;2.40;;;;;;;;;;4993210;28;20197;-40
2023/04/21 11:55:55;;;;;;;4.57;2.50;;;;;;;;;;4993301;28;20247;-40
2023/04/21 11:58:21;;;;;;;3.30;2.38;;;;;;;;;;4992323;28;20228;-40
2023/04/21 12:00:47;;;;;;;4.55;2.60;;;;;;;;;;4993628;28;20592;-40
2023/04/21 12:03:13;;;;;;;6.10;2.45;;;;;;;;;;4993755;28;20277;-40
2023/04/21 12:05:39;;;;;;;2.92;2.50;;;;;;;;;;4992665;28;20264;-40
2023/04/21 12:08:06;;;;;;;3.17;2.45;;;;;;;;;;4993560;28;20295;-40
2023/04/21 12:10:32;;;;;;;3.80;2.60;;;;;;;;;;4994272;28;20255;-38
2023/04/21 12:12:58;;;;;;;3.28;2.50;;;;;;;;;;4992907;28;20183;-38
2023/04/21 12:15:24;;;;;;;4.68;2.60;;;;;;;;;;4992627;28;20715;-39
2023/04/21 12:17:51;;;;;;;5.47;2.67;;;;;;;;;;4993484;28;20602;-39
2023/04/21 12:20:18;;;;;;;3.75;2.40;;;;;;;;;;4993409;28;20557;-39
2023/04/21 12:22:44;;;;;;;3.47;2.58;;;;;;;;;;4992852;28;20177;-39
2023/04/21 12:25:10;;;;;;;4.00;2.53;;;;;;;;;;4997859;28;20181;-39
2023/04/21 12:27:36;;;;;;;4.50;2.45;;;;;;;;;;4996546;28;20561;-39
2023/04/21 12:30:02;;;;;;;3.97;2.17;;;;;;;;;;4995519;28;20197;-39
2023/04/21 12:32:29;;;;;;;6.22;2.75;;;;;;;;;;4996630;28;20224;-39
2023/04/21 12:34:55;;;;;;;5.20;2.45;;;;;;;;;;4996424;28;20177;-39
2023/04/21 12:37:21;;;;;;;5.72;2.80;;;;;;;;;;4996253;28;20285;-39
2023/04/21 12:39:47;;;;;;;5.07;2.90;;;;;;;;;;4996884;28;20219;-39
2023/04/21 12:42:13;;;;;;;4.10;3.22;;;;;;;;;;4997718;28;20180;-39
2023/04/21 12:44:39;;;;;;;3.28;2.67;;;;;;;;;;4997004;28;20598;-39
2023/04/21 12:47:05;;;;;;;5.90;3.35;;;;;;;;;;4995635;28;20181;-39
2023/04/21 12:49:31;;;;;;;5.85;2.90;;;;;;;;;;4996660;28;20501;-39
2023/04/21 12:51:57;;;;;;;4.60;2.90;;;;;;;;;;4996863;28;20268;-39
2023/04/21 12:54:23;;;;;;;4.95;3.20;;;;;;;;;;4996101;28;20195;-39
2023/04/21 12:56:49;;;;;;;5.10;3.13;;;;;;;;;;4996378;28;20192;-39
2023/04/21 12:59:15;;;;;;;5.68;3.22;;;;;;;;;;4994819;28;20244;-39
2023/04/21 13:01:42;;;;;;;5.32;3.20;;;;;;;;;;4995747;28;20222;-39
2023/04/21 13:04:08;;;;;;;6.38;2.78;;;;;;;;;;4993118;28;20776;-39
2023/04/21 13:06:34;;;;;;;4.95;2.83;;;;;;;;;;4996561;28;20189;-39
2023/04/21 13:09:00;;;;;;;5.07;2.92;;;;;;;;;;4996262;28;20177;-39
2023/04/21 13:11:26;;;;;;;3.50;2.90;;;;;;;;;;4996442;28;20224;-39
2023/04/21 13:13:52;;;;;;;5.00;3.00;;;;;;;;;;4996153;28;20196;-39
2023/04/21 13:16:18;;;;;;;4.30;3.10;;;;;;;;;;4995749;28;20189;-39
2023/04/21 13:18:45;;;;;;;4.40;2.70;;;;;;;;;;4996287;28;20208;-39
2023/04/21 13:21:11;;;;;;;4.10;2.67;;;;;;;;;;4996453;28;20181;-39
2023/04/21 13:23:37;;;;;;;5.38;3.20;;;;;;;;;;4996017;28;20197;-39
2023/04/21 13:26:03;;;;;;;4.65;3.08;;;;;;;;;;4996037;28;20177;-39
2023/04/21 13:28:29;;;;;;;5.43;2.90;;;;;;;;;;4995839;28;20189;-39
2023/04/21 13:30:55;;;;;;;3.55;3.03;;;;;;;;;;4996092;28;20196;-39
2023/04/21 13:33:21;;;;;;;5.13;3.00;;;;;;;;;;4995897;28;20185;-39
2023/04/21 13:35:47;;;;;;;4.07;2.30;;;;;;;;;;4994866;28;20211;-39
2023/04/21 13:38:13;;;;;;;4.00;2.65;;;;;;;;;;4995434;28;20284;-39
2023/04/21 13:40:39;;;;;;;7.30;3.03;;;;;;;;;;4996533;28;20545;-40
2023/04/21 13:43:05;;;;;;;3.20;2.80;;;;;;;;;;4995599;28;20205;-39
2023/04/21 13:45:31;;;;;;;3.85;2.70;;;;;;;;;;4995998;28;20271;-39
2023/04/21 13:48:00;;;;;;;4.20;2.70;;;;;;;;;;4995423;28;20196;-39
2023/04/21 13:50:26;;;;;;;4.35;2.70;;;;;;;;;;4992628;28;20178;-39
2023/04/21 13:52:51;;;;;;;4.82;2.80;;;;;;;;;;4994957;28;20672;-40
2023/04/21 13:55:17;;;;;;;4.50;2.80;;;;;;;;;;4995373;28;20239;-39
2023/04/21 13:57:43;;;;;;;3.22;2.50;;;;;;;;;;4993901;28;20208;-39
2023/04/21 14:00:10;;;;;;;4.45;2.88;;;;;;;;;;4995440;28;20200;-39
2023/04/21 14:02:36;;;;;;;3.70;2.45;;;;;;;;;;4995605;28;20572;-39
2023/04/21 14:05:03;;;;;;;3.58;2.70;;;;;;;;;;4995311;28;20193;-39
2023/04/21 14:07:29;;;;;;;3.63;2.33;;;;;;;;;;4993659;28;20184;-39
2023/04/21 14:09:55;;;;;;;4.03;2.60;;;;;;;;;;4994976;28;20185;-39
2023/04/21 14:12:21;;;;;;;3.75;2.22;;;;;;;;;;4995776;28;20189;-39
2023/04/21 14:14:47;;;;;;;2.97;2.08;;;;;;;;;;4994858;28;20181;-39
2023/04/21 14:17:15;;;;;;;3.70;2.30;;;;;;;;;;4994806;28;20275;-39
2023/04/21 14:19:41;;;;;;;3.00;2.47;;;;;;;;;;4994814;28;20211;-39
2023/04/21 14:22:07;;;;;;;3.97;2.47;;;;;;;;;;4995056;28;20193;-39
2023/04/21 14:24:33;;;;;;;4.68;2.53;;;;;;;;;;4995040;28;20189;-38
2023/04/21 14:26:59;;;;;;;3.22;2.40;;;;;;;;;;4994264;28;20200;-39
2023/04/21 14:29:25;;;;;;;5.20;2.80;;;;;;;;;;4994359;28;20185;-38
2023/04/21 14:31:56;;;;;;;9.65;2.42;;;;;;;;;;4995068;28;20196;-38
2023/04/21 14:34:22;;;;;;;12.95;3.05;;;;;;;;;;4994857;28;20177;-38
2023/04/21 14:36:48;;;;;;;9.85;3.33;;;;;;;;;;4994861;28;20193;-38